Terminal Aerodrome Forecast
Issued by NWS

Home | Current Version | Previous Version | Text Only | Print | Product List | Glossary On
Versions: 1 2 3 4 5 6 7 8 9 10 11 12 13 14 15
257
FTUS44 KCRP 191731
TAFALI
TAF
KALI 191731Z 1918/2018 16007KT P6SM FEW040
     FM192100 13014G20KT P6SM FEW060
     FM200200 15008KT P6SM SKC
     FM200800 VRB03KT P6SM SCT018
      TEMPO 2009/2013 00000KT 5SM BR BKN018
     FM201400 17008KT P6SM SCT025=

USA.gov is the U.S. government's official web portal to all federal, state and local government web resources and services.